Aviation Digital Data Service (ADDS)

Output produced by METARs form (0841 UTC 18 February 2019)
found at http://www.aviationweather.gov/metar/data/
 
METAR text: OITT 180830Z 29010KT 9999 FEW030 03/M04 Q1013 A2994
Conditions at: OITT (TABRIZ(IRAN-AB/C, IR) observed 0830 UTC 18 February 2019
Temperature: 3.0°C (37°F)
Dewpoint: -4.0°C (25°F) [RH = 60%]
Pressure (altimeter): 29.91 inches Hg (1013.0 mb)
Winds: from the WNW (290 degrees) at 12 MPH (10 knots; 5.1 m/s)
Visibility: 6 or more miles (10+ km)
Ceiling: at least 12,000 feet AGL
Clouds: few clouds at 3000 feet AGL
Weather: no significant weather observed at this time

METAR text: OITT 180800Z 29006KT 9999 FEW030 02/M05 Q1014 A2996 NOSIG
Conditions at: OITT (TABRIZ(IRAN-AB/C, IR) observed 0800 UTC 18 February 2019
Temperature: 2.0°C (36°F)
Dewpoint: -5.0°C (23°F) [RH = 60%]
Pressure (altimeter): 29.94 inches Hg (1014.0 mb)
Winds: from the WNW (290 degrees) at 7 MPH (6 knots; 3.1 m/s)
Visibility: 6 or more miles (10+ km)
Ceiling: at least 12,000 feet AGL
Clouds: few clouds at 3000 feet AGL
Weather: no significant weather observed at this time

METAR text: OITT 180730Z 24004KT CAVOK 02/M06 Q1014 A2996
Conditions at: OITT (TABRIZ(IRAN-AB/C, IR) observed 0730 UTC 18 February 2019
Temperature: 2.0°C (36°F)
Dewpoint: -6.0°C (21°F) [RH = 55%]
Pressure (altimeter): 29.94 inches Hg (1014.0 mb)
Winds: from the WSW (240 degrees) at 5 MPH (4 knots; 2.1 m/s)
Visibility: 6 or more miles (10+ km)
Ceiling: ceiling and visibility are OK
Clouds: unknown
Weather: no significant weather observed at this time

METAR text: OITT 180700Z 07004KT CAVOK 02/M06 Q1015 A2998 NOSIG
Conditions at: OITT (TABRIZ(IRAN-AB/C, IR) observed 0700 UTC 18 February 2019
Temperature: 2.0°C (36°F)
Dewpoint: -6.0°C (21°F) [RH = 55%]
Pressure (altimeter): 29.97 inches Hg (1015.0 mb)
Winds: from the ENE (70 degrees) at 5 MPH (4 knots; 2.1 m/s)
Visibility: 6 or more miles (10+ km)
Ceiling: ceiling and visibility are OK
Clouds: unknown
Weather: no significant weather observed at this time

METAR text: OITT 180630Z 30004KT CAVOK 01/M07 Q1015 A2998
Conditions at: OITT (TABRIZ(IRAN-AB/C, IR) observed 0630 UTC 18 February 2019
Temperature: 1.0°C (34°F)
Dewpoint: -7.0°C (19°F) [RH = 55%]
Pressure (altimeter): 29.97 inches Hg (1015.0 mb)
Winds: from the WNW (300 degrees) at 5 MPH (4 knots; 2.1 m/s)
Visibility: 6 or more miles (10+ km)
Ceiling: ceiling and visibility are OK
Clouds: unknown
Weather: no significant weather observed at this time

METAR text: OITT 180600Z 01004KT CAVOK M01/M07 Q1015 A2998 NOSIG
Conditions at: OITT (TABRIZ(IRAN-AB/C, IR) observed 0600 UTC 18 February 2019
Temperature: -1.0°C (30°F)
Dewpoint: -7.0°C (19°F) [RH = 64%]
Pressure (altimeter): 29.97 inches Hg (1015.0 mb)
Winds: from the N (10 degrees) at 5 MPH (4 knots; 2.1 m/s)
Visibility: 6 or more miles (10+ km)
Ceiling: ceiling and visibility are OK
Clouds: unknown
Weather: no significant weather observed at this time

METAR text: OITT 180530Z 04004KT 9999 FEW040 M01/M06 Q1015 A2998
Conditions at: OITT (TABRIZ(IRAN-AB/C, IR) observed 0530 UTC 18 February 2019
Temperature: -1.0°C (30°F)
Dewpoint: -6.0°C (21°F) [RH = 69%]
Pressure (altimeter): 29.97 inches Hg (1015.0 mb)
Winds: from the NE (40 degrees) at 5 MPH (4 knots; 2.1 m/s)
Visibility: 6 or more miles (10+ km)
Ceiling: at least 12,000 feet AGL
Clouds: few clouds at 4000 feet AGL
Weather: no significant weather observed at this time

METAR text: OITT 180500Z 03004KT 9999 FEW040 M02/M06 Q1015 A2998 NOSIG
Conditions at: OITT (TABRIZ(IRAN-AB/C, IR) observed 0500 UTC 18 February 2019
Temperature: -2.0°C (28°F)
Dewpoint: -6.0°C (21°F) [RH = 74%]
Pressure (altimeter): 29.97 inches Hg (1015.0 mb)
Winds: from the NNE (30 degrees) at 5 MPH (4 knots; 2.1 m/s)
Visibility: 6 or more miles (10+ km)
Ceiling: at least 12,000 feet AGL
Clouds: few clouds at 4000 feet AGL
Weather: no significant weather observed at this time

METAR text: OITT 180430Z 07004KT 9999 FEW040 M03/M07 Q1015 A2998
Conditions at: OITT (TABRIZ(IRAN-AB/C, IR) observed 0430 UTC 18 February 2019
Temperature: -3.0°C (27°F)
Dewpoint: -7.0°C (19°F) [RH = 74%]
Pressure (altimeter): 29.97 inches Hg (1015.0 mb)
Winds: from the ENE (70 degrees) at 5 MPH (4 knots; 2.1 m/s)
Visibility: 6 or more miles (10+ km)
Ceiling: at least 12,000 feet AGL
Clouds: few clouds at 4000 feet AGL
Weather: no significant weather observed at this time

METAR text: OITT 180400Z VRB02KT 9999 FEW040 M04/M07 Q1015 A2998 NOSIG
Conditions at: OITT (TABRIZ(IRAN-AB/C, IR) observed 0400 UTC 18 February 2019
Temperature: -4.0°C (25°F)
Dewpoint: -7.0°C (19°F) [RH = 80%]
Pressure (altimeter): 29.97 inches Hg (1015.0 mb)
Winds: variable direction winds at 2 MPH (2 knots; 1.0 m/s)
Visibility: 6 or more miles (10+ km)
Ceiling: at least 12,000 feet AGL
Clouds: few clouds at 4000 feet AGL
Weather: no significant weather observed at this time

METAR text: OITT 180330Z 04004KT CAVOK M04/M07 Q1015 A2998
Conditions at: OITT (TABRIZ(IRAN-AB/C, IR) observed 0330 UTC 18 February 2019
Temperature: -4.0°C (25°F)
Dewpoint: -7.0°C (19°F) [RH = 80%]
Pressure (altimeter): 29.97 inches Hg (1015.0 mb)
Winds: from the NE (40 degrees) at 5 MPH (4 knots; 2.1 m/s)
Visibility: 6 or more miles (10+ km)
Ceiling: ceiling and visibility are OK
Clouds: unknown
Weather: no significant weather observed at this time

METAR text: OITT 180300Z 04004KT CAVOK M03/M07 Q1015 A2998
Conditions at: OITT (TABRIZ(IRAN-AB/C, IR) observed 0300 UTC 18 February 2019
Temperature: -3.0°C (27°F)
Dewpoint: -7.0°C (19°F) [RH = 74%]
Pressure (altimeter): 29.97 inches Hg (1015.0 mb)
Winds: from the NE (40 degrees) at 5 MPH (4 knots; 2.1 m/s)
Visibility: 6 or more miles (10+ km)
Ceiling: ceiling and visibility are OK
Clouds: unknown
Weather: no significant weather observed at this time

METAR text: OITT 180230Z 05004KT CAVOK M03/M07 Q1015 A2999
Conditions at: OITT (TABRIZ(IRAN-AB/C, IR) observed 0230 UTC 18 February 2019
Temperature: -3.0°C (27°F)
Dewpoint: -7.0°C (19°F) [RH = 74%]
Pressure (altimeter): 29.97 inches Hg (1015.0 mb)
Winds: from the NE (50 degrees) at 5 MPH (4 knots; 2.1 m/s)
Visibility: 6 or more miles (10+ km)
Ceiling: ceiling and visibility are OK
Clouds: unknown
Weather: no significant weather observed at this time

METAR text: OITT 180200Z VRB02KT CAVOK M04/M07 Q1015 A2999
Conditions at: OITT (TABRIZ(IRAN-AB/C, IR) observed 0200 UTC 18 February 2019
Temperature: -4.0°C (25°F)
Dewpoint: -7.0°C (19°F) [RH = 80%]
Pressure (altimeter): 29.97 inches Hg (1015.0 mb)
Winds: variable direction winds at 2 MPH (2 knots; 1.0 m/s)
Visibility: 6 or more miles (10+ km)
Ceiling: ceiling and visibility are OK
Clouds: unknown
Weather: no significant weather observed at this time

METAR text: OITT 180130Z 04004KT CAVOK M03/M06 Q1015 A2999
Conditions at: OITT (TABRIZ(IRAN-AB/C, IR) observed 0130 UTC 18 February 2019
Temperature: -3.0°C (27°F)
Dewpoint: -6.0°C (21°F) [RH = 80%]
Pressure (altimeter): 29.97 inches Hg (1015.0 mb)
Winds: from the NE (40 degrees) at 5 MPH (4 knots; 2.1 m/s)
Visibility: 6 or more miles (10+ km)
Ceiling: ceiling and visibility are OK
Clouds: unknown
Weather: no significant weather observed at this time

METAR text: OITT 180100Z 03004KT CAVOK M03/M06 Q1015 A3000
Conditions at: OITT (TABRIZ(IRAN-AB/C, IR) observed 0100 UTC 18 February 2019
Temperature: -3.0°C (27°F)
Dewpoint: -6.0°C (21°F) [RH = 80%]
Pressure (altimeter): 29.97 inches Hg (1015.0 mb)
Winds: from the NNE (30 degrees) at 5 MPH (4 knots; 2.1 m/s)
Visibility: 6 or more miles (10+ km)
Ceiling: ceiling and visibility are OK
Clouds: unknown
Weather: no significant weather observed at this time

METAR text: OITT 180030Z 05004KT CAVOK M02/M06 Q1015 A3000
Conditions at: OITT (TABRIZ(IRAN-AB/C, IR) observed 0030 UTC 18 February 2019
Temperature: -2.0°C (28°F)
Dewpoint: -6.0°C (21°F) [RH = 74%]
Pressure (altimeter): 29.97 inches Hg (1015.0 mb)
Winds: from the NE (50 degrees) at 5 MPH (4 knots; 2.1 m/s)
Visibility: 6 or more miles (10+ km)
Ceiling: ceiling and visibility are OK
Clouds: unknown
Weather: no significant weather observed at this time

METAR text: OITT 180000Z VRB02KT CAVOK M02/M06 Q1016 A3001
Conditions at: OITT (TABRIZ(IRAN-AB/C, IR) observed 0000 UTC 18 February 2019
Temperature: -2.0°C (28°F)
Dewpoint: -6.0°C (21°F) [RH = 74%]
Pressure (altimeter): 30.00 inches Hg (1016.0 mb)
Winds: variable direction winds at 2 MPH (2 knots; 1.0 m/s)
Visibility: 6 or more miles (10+ km)
Ceiling: ceiling and visibility are OK
Clouds: unknown
Weather: no significant weather observed at this time

METAR text: OITT 172330Z 00000KT CAVOK M02/M07 Q1016 A3001
Conditions at: OITT (TABRIZ(IRAN-AB/C, IR) observed 2330 UTC 17 February 2019
Temperature: -2.0°C (28°F)
Dewpoint: -7.0°C (19°F) [RH = 69%]
Pressure (altimeter): 30.00 inches Hg (1016.0 mb)
Winds: calm
Visibility: 6 or more miles (10+ km)
Ceiling: ceiling and visibility are OK
Clouds: unknown
Weather: no significant weather observed at this time

METAR text: OITT 172300Z 34004KT CAVOK M01/M08 Q1016 A3001
Conditions at: OITT (TABRIZ(IRAN-AB/C, IR) observed 2300 UTC 17 February 2019
Temperature: -1.0°C (30°F)
Dewpoint: -8.0°C (18°F) [RH = 59%]
Pressure (altimeter): 30.00 inches Hg (1016.0 mb)
Winds: from the NNW (340 degrees) at 5 MPH (4 knots; 2.1 m/s)
Visibility: 6 or more miles (10+ km)
Ceiling: ceiling and visibility are OK
Clouds: unknown
Weather: no significant weather observed at this time

METAR text: OITT 172230Z VRB02KT CAVOK M00/M08 Q1016 A3002
Conditions at: OITT (TABRIZ(IRAN-AB/C, IR) observed 2230 UTC 17 February 2019
Temperature: 0.0°C (32°F)
Dewpoint: -8.0°C (18°F) [RH = 55%]
Pressure (altimeter): 30.00 inches Hg (1016.0 mb)
Winds: variable direction winds at 2 MPH (2 knots; 1.0 m/s)
Visibility: 6 or more miles (10+ km)
Ceiling: ceiling and visibility are OK
Clouds: unknown
Weather: no significant weather observed at this time

METAR text: OITT 172200Z 35004KT CAVOK 00/M08 Q1016 A3002
Conditions at: OITT (TABRIZ(IRAN-AB/C, IR) observed 2200 UTC 17 February 2019
Temperature: 0.0°C (32°F)
Dewpoint: -8.0°C (18°F) [RH = 55%]
Pressure (altimeter): 30.00 inches Hg (1016.0 mb)
Winds: from the N (350 degrees) at 5 MPH (4 knots; 2.1 m/s)
Visibility: 6 or more miles (10+ km)
Ceiling: ceiling and visibility are OK
Clouds: unknown
Weather: no significant weather observed at this time

METAR text: OITT 172130Z 18004KT CAVOK 00/M07 Q1016 A3002
Conditions at: OITT (TABRIZ(IRAN-AB/C, IR) observed 2130 UTC 17 February 2019
Temperature: 0.0°C (32°F)
Dewpoint: -7.0°C (19°F) [RH = 59%]
Pressure (altimeter): 30.00 inches Hg (1016.0 mb)
Winds: from the S (180 degrees) at 5 MPH (4 knots; 2.1 m/s)
Visibility: 6 or more miles (10+ km)
Ceiling: ceiling and visibility are OK
Clouds: unknown
Weather: no significant weather observed at this time

METAR text: OITT 172100Z 00000KT CAVOK 00/M07 Q1016 A3002 NOSIG
Conditions at: OITT (TABRIZ(IRAN-AB/C, IR) observed 2100 UTC 17 February 2019
Temperature: 0.0°C (32°F)
Dewpoint: -7.0°C (19°F) [RH = 59%]
Pressure (altimeter): 30.00 inches Hg (1016.0 mb)
Winds: calm
Visibility: 6 or more miles (10+ km)
Ceiling: ceiling and visibility are OK
Clouds: unknown
Weather: no significant weather observed at this time

METAR text: OITT 172030Z VRB02KT CAVOK 01/M08 Q1016 A3002
Conditions at: OITT (TABRIZ(IRAN-AB/C, IR) observed 2030 UTC 17 February 2019
Temperature: 1.0°C (34°F)
Dewpoint: -8.0°C (18°F) [RH = 51%]
Pressure (altimeter): 30.00 inches Hg (1016.0 mb)
Winds: variable direction winds at 2 MPH (2 knots; 1.0 m/s)
Visibility: 6 or more miles (10+ km)
Ceiling: ceiling and visibility are OK
Clouds: unknown
Weather: no significant weather observed at this time

METAR text: OITT 172000Z 11004KT CAVOK M00/M06 Q1016 A3002 NOSIG
Conditions at: OITT (TABRIZ(IRAN-AB/C, IR) observed 2000 UTC 17 February 2019
Temperature: 0.0°C (32°F)
Dewpoint: -6.0°C (21°F) [RH = 64%]
Pressure (altimeter): 30.00 inches Hg (1016.0 mb)
Winds: from the ESE (110 degrees) at 5 MPH (4 knots; 2.1 m/s)
Visibility: 6 or more miles (10+ km)
Ceiling: ceiling and visibility are OK
Clouds: unknown
Weather: no significant weather observed at this time

METAR text: OITT 171930Z VRB02KT 9999 FEW032 M01/M06 Q1016 A3002
Conditions at: OITT (TABRIZ(IRAN-AB/C, IR) observed 1930 UTC 17 February 2019
Temperature: -1.0°C (30°F)
Dewpoint: -6.0°C (21°F) [RH = 69%]
Pressure (altimeter): 30.00 inches Hg (1016.0 mb)
Winds: variable direction winds at 2 MPH (2 knots; 1.0 m/s)
Visibility: 6 or more miles (10+ km)
Ceiling: at least 12,000 feet AGL
Clouds: few clouds at 3200 feet AGL
Weather: no significant weather observed at this time

METAR text: OITT 171900Z 33006KT 9999 FEW032 M00/M07 Q1016 A3003 NOSIG
Conditions at: OITT (TABRIZ(IRAN-AB/C, IR) observed 1900 UTC 17 February 2019
Temperature: 0.0°C (32°F)
Dewpoint: -7.0°C (19°F) [RH = 59%]
Pressure (altimeter): 30.00 inches Hg (1016.0 mb)
Winds: from the NNW (330 degrees) at 7 MPH (6 knots; 3.1 m/s)
Visibility: 6 or more miles (10+ km)
Ceiling: at least 12,000 feet AGL
Clouds: few clouds at 3200 feet AGL
Weather: no significant weather observed at this time

METAR text: OITT 171830Z 00000KT 9999 FEW032 00/M06 Q1016 A3002
Conditions at: OITT (TABRIZ(IRAN-AB/C, IR) observed 1830 UTC 17 February 2019
Temperature: 0.0°C (32°F)
Dewpoint: -6.0°C (21°F) [RH = 64%]
Pressure (altimeter): 30.00 inches Hg (1016.0 mb)
Winds: calm
Visibility: 6 or more miles (10+ km)
Ceiling: at least 12,000 feet AGL
Clouds: few clouds at 3200 feet AGL
Weather: no significant weather observed at this time

METAR text: OITT 171800Z 30006KT 9999 FEW032 00/M06 Q1016 A3002 NOSIG
Conditions at: OITT (TABRIZ(IRAN-AB/C, IR) observed 1800 UTC 17 February 2019
Temperature: 0.0°C (32°F)
Dewpoint: -6.0°C (21°F) [RH = 64%]
Pressure (altimeter): 30.00 inches Hg (1016.0 mb)
Winds: from the WNW (300 degrees) at 7 MPH (6 knots; 3.1 m/s)
Visibility: 6 or more miles (10+ km)
Ceiling: at least 12,000 feet AGL
Clouds: few clouds at 3200 feet AGL
Weather: no significant weather observed at this time

METAR text: OITT 171730Z 30008KT 9999 FEW032 01/M06 Q1016 A3002
Conditions at: OITT (TABRIZ(IRAN-AB/C, IR) observed 1730 UTC 17 February 2019
Temperature: 1.0°C (34°F)
Dewpoint: -6.0°C (21°F) [RH = 59%]
Pressure (altimeter): 30.00 inches Hg (1016.0 mb)
Winds: from the WNW (300 degrees) at 9 MPH (8 knots; 4.1 m/s)
Visibility: 6 or more miles (10+ km)
Ceiling: at least 12,000 feet AGL
Clouds: few clouds at 3200 feet AGL
Weather: no significant weather observed at this time

METAR text: OITT 171700Z 32004KT 9999 FEW032 01/M05 Q1016 A3001 NOSIG
Conditions at: OITT (TABRIZ(IRAN-AB/C, IR) observed 1700 UTC 17 February 2019
Temperature: 1.0°C (34°F)
Dewpoint: -5.0°C (23°F) [RH = 64%]
Pressure (altimeter): 30.00 inches Hg (1016.0 mb)
Winds: from the NW (320 degrees) at 5 MPH (4 knots; 2.1 m/s)
Visibility: 6 or more miles (10+ km)
Ceiling: at least 12,000 feet AGL
Clouds: few clouds at 3200 feet AGL
Weather: no significant weather observed at this time

METAR text: OITT 171630Z 32006KT 9999 FEW032 02/M05 Q1016 A3001
Conditions at: OITT (TABRIZ(IRAN-AB/C, IR) observed 1630 UTC 17 February 2019
Temperature: 2.0°C (36°F)
Dewpoint: -5.0°C (23°F) [RH = 60%]
Pressure (altimeter): 30.00 inches Hg (1016.0 mb)
Winds: from the NW (320 degrees) at 7 MPH (6 knots; 3.1 m/s)
Visibility: 6 or more miles (10+ km)
Ceiling: at least 12,000 feet AGL
Clouds: few clouds at 3200 feet AGL
Weather: no significant weather observed at this time

METAR text: OITT 171600Z 27008KT 9999 FEW032 02/M05 Q1016 A3001 NOSIG
Conditions at: OITT (TABRIZ(IRAN-AB/C, IR) observed 1600 UTC 17 February 2019
Temperature: 2.0°C (36°F)
Dewpoint: -5.0°C (23°F) [RH = 60%]
Pressure (altimeter): 30.00 inches Hg (1016.0 mb)
Winds: from the W (270 degrees) at 9 MPH (8 knots; 4.1 m/s)
Visibility: 6 or more miles (10+ km)
Ceiling: at least 12,000 feet AGL
Clouds: few clouds at 3200 feet AGL
Weather: no significant weather observed at this time

METAR text: OITT 171530Z 30008KT 9999 FEW032 02/M05 Q1016 A3001
Conditions at: OITT (TABRIZ(IRAN-AB/C, IR) observed 1530 UTC 17 February 2019
Temperature: 2.0°C (36°F)
Dewpoint: -5.0°C (23°F) [RH = 60%]
Pressure (altimeter): 30.00 inches Hg (1016.0 mb)
Winds: from the WNW (300 degrees) at 9 MPH (8 knots; 4.1 m/s)
Visibility: 6 or more miles (10+ km)
Ceiling: at least 12,000 feet AGL
Clouds: few clouds at 3200 feet AGL
Weather: no significant weather observed at this time

METAR text: OITT 171500Z 30006KT 9999 FEW032 02/M04 Q1015 A3000 NOSIG
Conditions at: OITT (TABRIZ(IRAN-AB/C, IR) observed 1500 UTC 17 February 2019
Temperature: 2.0°C (36°F)
Dewpoint: -4.0°C (25°F) [RH = 64%]
Pressure (altimeter): 29.97 inches Hg (1015.0 mb)
Winds: from the WNW (300 degrees) at 7 MPH (6 knots; 3.1 m/s)
Visibility: 6 or more miles (10+ km)
Ceiling: at least 12,000 feet AGL
Clouds: few clouds at 3200 feet AGL
Weather: no significant weather observed at this time

METAR text: OITT 171430Z 32008KT 9999 FEW030 02/M04 Q1015 A3000
Conditions at: OITT (TABRIZ(IRAN-AB/C, IR) observed 1430 UTC 17 February 2019
Temperature: 2.0°C (36°F)
Dewpoint: -4.0°C (25°F) [RH = 64%]
Pressure (altimeter): 29.97 inches Hg (1015.0 mb)
Winds: from the NW (320 degrees) at 9 MPH (8 knots; 4.1 m/s)
Visibility: 6 or more miles (10+ km)
Ceiling: at least 12,000 feet AGL
Clouds: few clouds at 3000 feet AGL
Weather: no significant weather observed at this time

METAR text: OITT 171400Z 32014KT 9999 FEW030 03/M04 Q1015 A2999 NOSIG
Conditions at: OITT (TABRIZ(IRAN-AB/C, IR) observed 1400 UTC 17 February 2019
Temperature: 3.0°C (37°F)
Dewpoint: -4.0°C (25°F) [RH = 60%]
Pressure (altimeter): 29.97 inches Hg (1015.0 mb)
Winds: from the NW (320 degrees) at 16 MPH (14 knots; 7.2 m/s)
Visibility: 6 or more miles (10+ km)
Ceiling: at least 12,000 feet AGL
Clouds: few clouds at 3000 feet AGL
Weather: no significant weather observed at this time

METAR text: OITT 171330Z 32014KT 9999 SCT030 04/M05 Q1015 A2999
Conditions at: OITT (TABRIZ(IRAN-AB/C, IR) observed 1330 UTC 17 February 2019
Temperature: 4.0°C (39°F)
Dewpoint: -5.0°C (23°F) [RH = 52%]
Pressure (altimeter): 29.97 inches Hg (1015.0 mb)
Winds: from the NW (320 degrees) at 16 MPH (14 knots; 7.2 m/s)
Visibility: 6 or more miles (10+ km)
Ceiling: at least 12,000 feet AGL
Clouds: scattered clouds at 3000 feet AGL
Weather: no significant weather observed at this time

METAR text: OITT 171300Z 30012KT 9999 SCT030 04/M03 Q1015 A2999
Conditions at: OITT (TABRIZ(IRAN-AB/C, IR) observed 1300 UTC 17 February 2019
Temperature: 4.0°C (39°F)
Dewpoint: -3.0°C (27°F) [RH = 60%]
Pressure (altimeter): 29.97 inches Hg (1015.0 mb)
Winds: from the WNW (300 degrees) at 14 MPH (12 knots; 6.2 m/s)
Visibility: 6 or more miles (10+ km)
Ceiling: at least 12,000 feet AGL
Clouds: scattered clouds at 3000 feet AGL
Weather: no significant weather observed at this time

METAR text: OITT 171230Z 29014KT 9999 FEW020 SCT030 04/M03 Q1015 A2999
Conditions at: OITT (TABRIZ(IRAN-AB/C, IR) observed 1230 UTC 17 February 2019
Temperature: 4.0°C (39°F)
Dewpoint: -3.0°C (27°F) [RH = 60%]
Pressure (altimeter): 29.97 inches Hg (1015.0 mb)
Winds: from the WNW (290 degrees) at 16 MPH (14 knots; 7.2 m/s)
Visibility: 6 or more miles (10+ km)
Ceiling: at least 12,000 feet AGL
Clouds: few clouds at 2000 feet AGL
scattered clouds at 3000 feet AGL
Weather: no significant weather observed at this time

METAR text: OITT 171200Z 30014KT 9999 FEW020 SCT030 05/M03 Q1015 A2999 NOSIG
Conditions at: OITT (TABRIZ(IRAN-AB/C, IR) observed 1200 UTC 17 February 2019
Temperature: 5.0°C (41°F)
Dewpoint: -3.0°C (27°F) [RH = 56%]
Pressure (altimeter): 29.97 inches Hg (1015.0 mb)
Winds: from the WNW (300 degrees) at 16 MPH (14 knots; 7.2 m/s)
Visibility: 6 or more miles (10+ km)
Ceiling: at least 12,000 feet AGL
Clouds: few clouds at 2000 feet AGL
scattered clouds at 3000 feet AGL
Weather: no significant weather observed at this time

METAR text: OITT 171130Z 30016KT 9999 FEW015 SCT030 05/M03 Q1015 A3000
Conditions at: OITT (TABRIZ(IRAN-AB/C, IR) observed 1130 UTC 17 February 2019
Temperature: 5.0°C (41°F)
Dewpoint: -3.0°C (27°F) [RH = 56%]
Pressure (altimeter): 29.97 inches Hg (1015.0 mb)
Winds: from the WNW (300 degrees) at 18 MPH (16 knots; 8.2 m/s)
Visibility: 6 or more miles (10+ km)
Ceiling: at least 12,000 feet AGL
Clouds: few clouds at 1500 feet AGL
scattered clouds at 3000 feet AGL
Weather: no significant weather observed at this time

METAR text: OITT 171100Z 29014KT 9999 FEW015 SCT030 04/M05 Q1016 A3000 NOSIG
Conditions at: OITT (TABRIZ(IRAN-AB/C, IR) observed 1100 UTC 17 February 2019
Temperature: 4.0°C (39°F)
Dewpoint: -5.0°C (23°F) [RH = 52%]
Pressure (altimeter): 30.00 inches Hg (1016.0 mb)
Winds: from the WNW (290 degrees) at 16 MPH (14 knots; 7.2 m/s)
Visibility: 6 or more miles (10+ km)
Ceiling: at least 12,000 feet AGL
Clouds: few clouds at 1500 feet AGL
scattered clouds at 3000 feet AGL
Weather: no significant weather observed at this time

METAR text: OITT 171030Z 30012KT 9999 FEW015 SCT030 04/M04 Q1016 A3001
Conditions at: OITT (TABRIZ(IRAN-AB/C, IR) observed 1030 UTC 17 February 2019
Temperature: 4.0°C (39°F)
Dewpoint: -4.0°C (25°F) [RH = 56%]
Pressure (altimeter): 30.00 inches Hg (1016.0 mb)
Winds: from the WNW (300 degrees) at 14 MPH (12 knots; 6.2 m/s)
Visibility: 6 or more miles (10+ km)
Ceiling: at least 12,000 feet AGL
Clouds: few clouds at 1500 feet AGL
scattered clouds at 3000 feet AGL
Weather: no significant weather observed at this time

METAR text: OITT 171000Z 29012KT 9999 FEW015 SCT030 04/M05 Q1016 A3001 NOSIG
Conditions at: OITT (TABRIZ(IRAN-AB/C, IR) observed 1000 UTC 17 February 2019
Temperature: 4.0°C (39°F)
Dewpoint: -5.0°C (23°F) [RH = 52%]
Pressure (altimeter): 30.00 inches Hg (1016.0 mb)
Winds: from the WNW (290 degrees) at 14 MPH (12 knots; 6.2 m/s)
Visibility: 6 or more miles (10+ km)
Ceiling: at least 12,000 feet AGL
Clouds: few clouds at 1500 feet AGL
scattered clouds at 3000 feet AGL
Weather: no significant weather observed at this time

METAR text: OITT 170930Z 29008KT 9999 FEW011 SCT030 BKN090 03/M04 Q1016 A3002
Conditions at: OITT (TABRIZ(IRAN-AB/C, IR) observed 0930 UTC 17 February 2019
Temperature: 3.0°C (37°F)
Dewpoint: -4.0°C (25°F) [RH = 60%]
Pressure (altimeter): 30.00 inches Hg (1016.0 mb)
Winds: from the WNW (290 degrees) at 9 MPH (8 knots; 4.1 m/s)
Visibility: 6 or more miles (10+ km)
Ceiling: 9000 feet AGL
Clouds: few clouds at 1100 feet AGL
scattered clouds at 3000 feet AGL
broken clouds at 9000 feet AGL
Weather: no significant weather observed at this time

METAR text: OITT 170900Z 27008KT 9999 FEW010 SCT030 BKN090 03/M04 Q1017 A3003 NOSIG
Conditions at: OITT (TABRIZ(IRAN-AB/C, IR) observed 0900 UTC 17 February 2019
Temperature: 3.0°C (37°F)
Dewpoint: -4.0°C (25°F) [RH = 60%]
Pressure (altimeter): 30.03 inches Hg (1017.0 mb)
Winds: from the W (270 degrees) at 9 MPH (8 knots; 4.1 m/s)
Visibility: 6 or more miles (10+ km)
Ceiling: 9000 feet AGL
Clouds: few clouds at 1000 feet AGL
scattered clouds at 3000 feet AGL
broken clouds at 9000 feet AGL
Weather: no significant weather observed at this time

METAR text: OITT 170830Z 26008KT 6000 SCT007 SCT030 BKN080 02/M03 Q1017 A3003
Conditions at: OITT (TABRIZ(IRAN-AB/C, IR) observed 0830 UTC 17 February 2019
Temperature: 2.0°C (36°F)
Dewpoint: -3.0°C (27°F) [RH = 69%]
Pressure (altimeter): 30.03 inches Hg (1017.0 mb)
Winds: from the W (260 degrees) at 9 MPH (8 knots; 4.1 m/s)
Visibility: 4 miles ( 6 km)
Ceiling: 8000 feet AGL
Clouds: scattered clouds at 700 feet AGL
scattered clouds at 3000 feet AGL
broken clouds at 8000 feet AGL
Weather: no significant weather observed at this time

METAR text: OITT 170800Z 29010KT 6000 HZ SCT007 SCT030 BKN080 02/M03 Q1017 A3003 NOSIG
Conditions at: OITT (TABRIZ(IRAN-AB/C, IR) observed 0800 UTC 17 February 2019
Temperature: 2.0°C (36°F)
Dewpoint: -3.0°C (27°F) [RH = 69%]
Pressure (altimeter): 30.03 inches Hg (1017.0 mb)
Winds: from the WNW (290 degrees) at 12 MPH (10 knots; 5.1 m/s)
Visibility: 4 miles ( 6 km)
Ceiling: 8000 feet AGL
Clouds: scattered clouds at 700 feet AGL
scattered clouds at 3000 feet AGL
broken clouds at 8000 feet AGL
Weather: HZ  (haze)

METAR text: OITT 170730Z 28006KT 4000 HZ SCT006 SCT030 BKN080 02/M03 Q1016 A3003
Conditions at: OITT (TABRIZ(IRAN-AB/C, IR) observed 0730 UTC 17 February 2019
Temperature: 2.0°C (36°F)
Dewpoint: -3.0°C (27°F) [RH = 69%]
Pressure (altimeter): 30.00 inches Hg (1016.0 mb)
Winds: from the W (280 degrees) at 7 MPH (6 knots; 3.1 m/s)
Visibility: 2.49 miles (4.01 km)
Ceiling: 8000 feet AGL
Clouds: scattered clouds at 600 feet AGL
scattered clouds at 3000 feet AGL
broken clouds at 8000 feet AGL
Weather: HZ  (haze)

METAR text: OITT 170700Z 30004KT 3000 BR SCT005 SCT030 BKN080 01/M02 Q1016 A3003 NOSIG
Conditions at: OITT (TABRIZ(IRAN-AB/C, IR) observed 0700 UTC 17 February 2019
Temperature: 1.0°C (34°F)
Dewpoint: -2.0°C (28°F) [RH = 80%]
Pressure (altimeter): 30.00 inches Hg (1016.0 mb)
Winds: from the WNW (300 degrees) at 5 MPH (4 knots; 2.1 m/s)
Visibility: 1.86 miles (2.99 km)
Ceiling: 8000 feet AGL
Clouds: scattered clouds at 500 feet AGL
scattered clouds at 3000 feet AGL
broken clouds at 8000 feet AGL
Weather: BR  (mist)

METAR text: OITT 170630Z VRB02KT 2500 BR SCT004 SCT030 BKN080 01/M01 Q1016 A3002
Conditions at: OITT (TABRIZ(IRAN-AB/C, IR) observed 0630 UTC 17 February 2019
Temperature: 1.0°C (34°F)
Dewpoint: -1.0°C (30°F) [RH = 86%]
Pressure (altimeter): 30.00 inches Hg (1016.0 mb)
Winds: variable direction winds at 2 MPH (2 knots; 1.0 m/s)
Visibility: 1.55 miles (2.49 km)
Ceiling: 8000 feet AGL
Clouds: scattered clouds at 400 feet AGL
scattered clouds at 3000 feet AGL
broken clouds at 8000 feet AGL
Weather: BR  (mist)

METAR text: OITT 170600Z 00000KT 2300 BR SCT004 SCT030 BKN080 00/M01 Q1016 A3002 NOSIG
Conditions at: OITT (TABRIZ(IRAN-AB/C, IR) observed 0600 UTC 17 February 2019
Temperature: 0.0°C (32°F)
Dewpoint: -1.0°C (30°F) [RH = 93%]
Pressure (altimeter): 30.00 inches Hg (1016.0 mb)
Winds: calm
Visibility: 1.43 miles (2.30 km)
Ceiling: 8000 feet AGL
Clouds: scattered clouds at 400 feet AGL
scattered clouds at 3000 feet AGL
broken clouds at 8000 feet AGL
Weather: BR  (mist)

METAR text: OITT 170530Z VRB02KT 2200 BR SCT004 SCT030 BKN080 00/M01 Q1016 A3002
Conditions at: OITT (TABRIZ(IRAN-AB/C, IR) observed 0530 UTC 17 February 2019
Temperature: 0.0°C (32°F)
Dewpoint: -1.0°C (30°F) [RH = 93%]
Pressure (altimeter): 30.00 inches Hg (1016.0 mb)
Winds: variable direction winds at 2 MPH (2 knots; 1.0 m/s)
Visibility: 1.37 miles (2.20 km)
Ceiling: 8000 feet AGL
Clouds: scattered clouds at 400 feet AGL
scattered clouds at 3000 feet AGL
broken clouds at 8000 feet AGL
Weather: BR  (mist)

METAR text: OITT 170500Z 00000KT 2200 BR SCT004 SCT030 BKN080 M01/M01 Q1016 A3001 NOSIG
Conditions at: OITT (TABRIZ(IRAN-AB/C, IR) observed 0500 UTC 17 February 2019
Temperature: -1.0°C (30°F)
Dewpoint: -1.0°C (30°F) [RH = 100%]
Pressure (altimeter): 30.00 inches Hg (1016.0 mb)
Winds: calm
Visibility: 1.37 miles (2.20 km)
Ceiling: 8000 feet AGL
Clouds: scattered clouds at 400 feet AGL
scattered clouds at 3000 feet AGL
broken clouds at 8000 feet AGL
Weather: BR  (mist)

METAR text: OITT 170430Z 00000KT 1500 R30/P2000 BR SCT003 SCT030 BKN070 M01/M02 Q1015 A2998
Conditions at: OITT (TABRIZ(IRAN-AB/C, IR) observed 0430 UTC 17 February 2019
Temperature: -1.0°C (30°F)
Dewpoint: -2.0°C (28°F) [RH = 93%]
Pressure (altimeter): 29.97 inches Hg (1015.0 mb)
Winds: calm
Visibility: 0.93 miles (1.50 km)
Ceiling: 7000 feet AGL
Clouds: scattered clouds at 300 feet AGL
scattered clouds at 3000 feet AGL
broken clouds at 7000 feet AGL
Weather: BR  (mist)

METAR text: OITT 170400Z 00000KT 1400 R30/P2000 BR SCT003 SCT030 OVC070 M01/M02 Q1015 A2998 NOSIG
Conditions at: OITT (TABRIZ(IRAN-AB/C, IR) observed 0400 UTC 17 February 2019
Temperature: -1.0°C (30°F)
Dewpoint: -2.0°C (28°F) [RH = 93%]
Pressure (altimeter): 29.97 inches Hg (1015.0 mb)
Winds: calm
Visibility: 0.87 miles (1.40 km)
Ceiling: 7000 feet AGL
Clouds: scattered clouds at 300 feet AGL
scattered clouds at 3000 feet AGL
overcast cloud deck at 7000 feet AGL
Weather: BR  (mist)

METAR text: OITT 170330Z 00000KT 1600 BR SCT003 SCT030 OVC070 M01/M02 Q1014 A2997
Conditions at: OITT (TABRIZ(IRAN-AB/C, IR) observed 0330 UTC 17 February 2019
Temperature: -1.0°C (30°F)
Dewpoint: -2.0°C (28°F) [RH = 93%]
Pressure (altimeter): 29.94 inches Hg (1014.0 mb)
Winds: calm
Visibility: 0.99 miles (1.59 km)
Ceiling: 7000 feet AGL
Clouds: scattered clouds at 300 feet AGL
scattered clouds at 3000 feet AGL
overcast cloud deck at 7000 feet AGL
Weather: BR  (mist)

METAR text: OITT 170300Z 31004KT 1600 BR SCT003 SCT030 OVC070 M01/M02 Q1014 A2997
Conditions at: OITT (TABRIZ(IRAN-AB/C, IR) observed 0300 UTC 17 February 2019
Temperature: -1.0°C (30°F)
Dewpoint: -2.0°C (28°F) [RH = 93%]
Pressure (altimeter): 29.94 inches Hg (1014.0 mb)
Winds: from the NW (310 degrees) at 5 MPH (4 knots; 2.1 m/s)
Visibility: 0.99 miles (1.59 km)
Ceiling: 7000 feet AGL
Clouds: scattered clouds at 300 feet AGL
scattered clouds at 3000 feet AGL
overcast cloud deck at 7000 feet AGL
Weather: BR  (mist)

METAR text: OITT 170230Z 00000KT 1600 BR SCT003 SCT030 OVC070 M02/M03 Q1014 A2997
Conditions at: OITT (TABRIZ(IRAN-AB/C, IR) observed 0230 UTC 17 February 2019
Temperature: -2.0°C (28°F)
Dewpoint: -3.0°C (27°F) [RH = 93%]
Pressure (altimeter): 29.94 inches Hg (1014.0 mb)
Winds: calm
Visibility: 0.99 miles (1.59 km)
Ceiling: 7000 feet AGL
Clouds: scattered clouds at 300 feet AGL
scattered clouds at 3000 feet AGL
overcast cloud deck at 7000 feet AGL
Weather: BR  (mist)

METAR text: OITT 170200Z 00000KT 1600 BR SCT003 SCT030 OVC070 M02/M03 Q1014 A2997
Conditions at: OITT (TABRIZ(IRAN-AB/C, IR) observed 0200 UTC 17 February 2019
Temperature: -2.0°C (28°F)
Dewpoint: -3.0°C (27°F) [RH = 93%]
Pressure (altimeter): 29.94 inches Hg (1014.0 mb)
Winds: calm
Visibility: 0.99 miles (1.59 km)
Ceiling: 7000 feet AGL
Clouds: scattered clouds at 300 feet AGL
scattered clouds at 3000 feet AGL
overcast cloud deck at 7000 feet AGL
Weather: BR  (mist)

METAR text: OITT 170130Z 00000KT 2000 BR SCT003 SCT030 BKN070 M02/M03 Q1015 A2998
Conditions at: OITT (TABRIZ(IRAN-AB/C, IR) observed 0130 UTC 17 February 2019
Temperature: -2.0°C (28°F)
Dewpoint: -3.0°C (27°F) [RH = 93%]
Pressure (altimeter): 29.97 inches Hg (1015.0 mb)
Winds: calm
Visibility: 1.24 miles (2.00 km)
Ceiling: 7000 feet AGL
Clouds: scattered clouds at 300 feet AGL
scattered clouds at 3000 feet AGL
broken clouds at 7000 feet AGL
Weather: BR  (mist)

METAR text: OITT 170100Z 00000KT 2000 BR SCT003 SCT030 BKN070 M02/M03 Q1015 A2998
Conditions at: OITT (TABRIZ(IRAN-AB/C, IR) observed 0100 UTC 17 February 2019
Temperature: -2.0°C (28°F)
Dewpoint: -3.0°C (27°F) [RH = 93%]
Pressure (altimeter): 29.97 inches Hg (1015.0 mb)
Winds: calm
Visibility: 1.24 miles (2.00 km)
Ceiling: 7000 feet AGL
Clouds: scattered clouds at 300 feet AGL
scattered clouds at 3000 feet AGL
broken clouds at 7000 feet AGL
Weather: BR  (mist)

METAR text: OITT 170030Z 00000KT 2500 BR SCT003 SCT030 BKN070 M00/M01 Q1015 A2999
Conditions at: OITT (TABRIZ(IRAN-AB/C, IR) observed 0030 UTC 17 February 2019
Temperature: 0.0°C (32°F)
Dewpoint: -1.0°C (30°F) [RH = 93%]
Pressure (altimeter): 29.97 inches Hg (1015.0 mb)
Winds: calm
Visibility: 1.55 miles (2.49 km)
Ceiling: 7000 feet AGL
Clouds: scattered clouds at 300 feet AGL
scattered clouds at 3000 feet AGL
broken clouds at 7000 feet AGL
Weather: BR  (mist)

METAR text: OITT 170000Z 32004KT 2500 BR SCT003 SCT030 BKN070 M00/M01 Q1015 A2999
Conditions at: OITT (TABRIZ(IRAN-AB/C, IR) observed 0000 UTC 17 February 2019
Temperature: 0.0°C (32°F)
Dewpoint: -1.0°C (30°F) [RH = 93%]
Pressure (altimeter): 29.97 inches Hg (1015.0 mb)
Winds: from the NW (320 degrees) at 5 MPH (4 knots; 2.1 m/s)
Visibility: 1.55 miles (2.49 km)
Ceiling: 7000 feet AGL
Clouds: scattered clouds at 300 feet AGL
scattered clouds at 3000 feet AGL
broken clouds at 7000 feet AGL
Weather: BR  (mist)

METAR text: OITT 162330Z 00000KT 2500 BR SCT003 BKN070 M00/M00 Q1015 A2999
Conditions at: OITT (TABRIZ(IRAN-AB/C, IR) observed 2330 UTC 16 February 2019
Temperature: 0.0°C (32°F)
Dewpoint: 0.0°C (32°F) [RH = 100%]
Pressure (altimeter): 29.97 inches Hg (1015.0 mb)
Winds: calm
Visibility: 1.55 miles (2.49 km)
Ceiling: 7000 feet AGL
Clouds: scattered clouds at 300 feet AGL
broken clouds at 7000 feet AGL
Weather: BR  (mist)

METAR text: OITT 162300Z 00000KT 2500 BR SCT003 BKN070 00/M00 Q1015 A2999
Conditions at: OITT (TABRIZ(IRAN-AB/C, IR) observed 2300 UTC 16 February 2019
Temperature: 0.0°C (32°F)
Dewpoint: 0.0°C (32°F) [RH = 100%]
Pressure (altimeter): 29.97 inches Hg (1015.0 mb)
Winds: calm
Visibility: 1.55 miles (2.49 km)
Ceiling: 7000 feet AGL
Clouds: scattered clouds at 300 feet AGL
broken clouds at 7000 feet AGL
Weather: BR  (mist)

METAR text: OITT 162230Z 24004KT 2000 BR SCT003 BKN070 00/M00 Q1015 A2999
Conditions at: OITT (TABRIZ(IRAN-AB/C, IR) observed 2230 UTC 16 February 2019
Temperature: 0.0°C (32°F)
Dewpoint: 0.0°C (32°F) [RH = 100%]
Pressure (altimeter): 29.97 inches Hg (1015.0 mb)
Winds: from the WSW (240 degrees) at 5 MPH (4 knots; 2.1 m/s)
Visibility: 1.24 miles (2.00 km)
Ceiling: 7000 feet AGL
Clouds: scattered clouds at 300 feet AGL
broken clouds at 7000 feet AGL
Weather: BR  (mist)

METAR text: OITT 162200Z 24004KT 2000 BR SCT003 BKN070 00/M00 Q1015 A2999 RESN
Conditions at: OITT (TABRIZ(IRAN-AB/C, IR) observed 2200 UTC 16 February 2019
Temperature: 0.0°C (32°F)
Dewpoint: 0.0°C (32°F) [RH = 100%]
Pressure (altimeter): 29.97 inches Hg (1015.0 mb)
Winds: from the WSW (240 degrees) at 5 MPH (4 knots; 2.1 m/s)
Visibility: 1.24 miles (2.00 km)
Ceiling: 7000 feet AGL
Clouds: scattered clouds at 300 feet AGL
broken clouds at 7000 feet AGL
Weather: BR  (mist)

METAR text: OITT 162130Z 28004KT 0600 R30/P2000 -SN FG SCT003 OVC070 00/M00 Q1015 A3000
Conditions at: OITT (TABRIZ(IRAN-AB/C, IR) observed 2130 UTC 16 February 2019
Temperature: 0.0°C (32°F)
Dewpoint: 0.0°C (32°F) [RH = 100%]
Pressure (altimeter): 29.97 inches Hg (1015.0 mb)
Winds: from the W (280 degrees) at 5 MPH (4 knots; 2.1 m/s)
Visibility: 0.37 miles (0.60 km)
Ceiling: 7000 feet AGL
Clouds: scattered clouds at 300 feet AGL
overcast cloud deck at 7000 feet AGL
Weather: -SN FG  (light snow, fog)

METAR text: OITT 162100Z 28006KT 0600 R30/P2000 +SN FG SCT003 OVC070 00/M00 Q1015 A3000 NOSIG
Conditions at: OITT (TABRIZ(IRAN-AB/C, IR) observed 2100 UTC 16 February 2019
Temperature: 0.0°C (32°F)
Dewpoint: 0.0°C (32°F) [RH = 100%]
Pressure (altimeter): 29.97 inches Hg (1015.0 mb)
Winds: from the W (280 degrees) at 7 MPH (6 knots; 3.1 m/s)
Visibility: 0.37 miles (0.60 km)
Ceiling: 7000 feet AGL
Clouds: scattered clouds at 300 feet AGL
overcast cloud deck at 7000 feet AGL
Weather: +SN FG  (heavy snow, fog)

Forecast for: OITT (TABRIZ(IRAN-AB/C, IR)
Text: TAF OITT 180550Z 1806/1912 30010KT 8000 NSC
Forecast period: 0600 to 1900 UTC 18 February 2019
Forecast type: FROM: standard forecast or significant change
Winds: from the WNW (300 degrees) at 12 MPH (10 knots; 5.1 m/s)
Visibility: 5 miles (8 km)
Ceiling: unknown
Clouds: missing
Weather: no significant weather forecast for this period
Text: TEMPO 1808/1814 24018KT FEW035CB SCT040 SCT100
Forecast period: 0800 to 1400 UTC 18 February 2019
Forecast type: TEMPORARY: The following changes expected for less than half the time period
Winds: from the WSW (240 degrees) at 21 MPH (18 knots; 9.3 m/s)
Visibility: missing
Ceiling: at least 12,000 feet AGL
Clouds: few clouds at 3500 feet AGL
scattered clouds at 4000 feet AGL
scattered clouds at 10000 feet AGL
Weather: no significant weather forecast for this period
Text: BECMG 1819/1821 24008KT 4000 BR FEW035 SCT100
Forecast period: 1900 UTC 18 February 2019 to 0400 UTC 19 February 2019
Forecast type: BECOMING: Conditions expected to become as follows by 2100 UTC 18 February 2019
Winds: from the WSW (240 degrees) at 9 MPH (8 knots; 4.1 m/s)
Visibility: 2.49 miles (4.01 km)
Ceiling: at least 12,000 feet AGL
Clouds: few clouds at 3500 feet AGL
scattered clouds at 10000 feet AGL
Weather: BR  (mist)
Text: BECMG 1904/1906 7000 NSC
Forecast period: 0400 to 1200 UTC 19 February 2019
Forecast type: BECOMING: Conditions expected to become as follows by 0600 UTC 19 February 2019
Winds: from the WSW (240 degrees) at 9 MPH (8 knots; 4.1 m/s)
Visibility: 4 miles (7 km)
Ceiling: unknown
Clouds: missing
Weather: BR  (mist)
Text: TEMPO 1909/1915 30014KT
Forecast period: 0900 to 1500 UTC 19 February 2019
Forecast type: TEMPORARY: The following changes expected for less than half the time period
Winds: from the WNW (300 degrees) at 16 MPH (14 knots; 7.2 m/s)
Visibility: missing
Ceiling: unknown
Clouds: missing
Weather: no significant weather forecast for this period